Shady Side, Maryland
Current Conditions -  °F | °C
As of 1:54 PM on Thursday 23 Oct 2014 (Local Time) from KNAK Reporting Station
Overcast Overcast  
Wind Chill: 61°   Ceiling: 9000
Heat Index: 61°   Visibility: 10mi
Dew Point: 45°   Wind: 17mph
Humidity: 56%   Direction: 320°NW
Pressure: 29.82"   Gusts: NA
Location:  38.84°N, 76.51°W
Report Text: KNAK 231754Z AUTO 32015KT 10SM FEW048 OVC090 16/07 A2982 RMK AO2 SLP100 T01610072 10167 20122 58013
Loading
Personal Weather Stations






























Interactive Weather Map
Tropical Storm Tracking
New forecast layout! Learn more

10-Day Weather Forecast

Advertisements
Track Severe Weather on mobile